Windom, Texas
Current Conditions -  °F | °C
As of 4:15 PM on Sunday 23 Nov 2014 (Local Time) from KPRX Reporting Station
Clear Clear  
Wind Chill: 72°   Ceiling: Unl
Heat Index: 72°   Visibility: 10mi
Dew Point: 46°   Wind: 15mph
Humidity: 41%   Direction: 230°SW
Pressure: 29.38"   Gusts: 24mph
Location:  33.57°N, 96°W
Report Text: KPRX 232215Z 23013G21KT 10SM CLR 22/08 A2938 RMK AO1
Loading
Personal Weather Stations






























Interactive Weather Map New forecast layout! Learn more

10-Day Weather Forecast

Advertisements
Track Severe Weather on mobile